sensor_id;sensor_type;location;lat;lon;timestamp;P1;durP1;ratioP1;P2;durP2;ratioP2
60919;SDS011;59039;52.108;19.942;2022-08-03T00:01:56;18.80;;;15.30;;
60919;SDS011;59039;52.108;19.942;2022-08-03T00:04:21;18.10;;;15.10;;
60919;SDS011;59039;52.108;19.942;2022-08-03T00:06:46;21.70;;;15.60;;
60919;SDS011;59039;52.108;19.942;2022-08-03T00:09:11;18.30;;;15.40;;
60919;SDS011;59039;52.108;19.942;2022-08-03T00:11:37;21.80;;;15.50;;
60919;SDS011;59039;52.108;19.942;2022-08-03T00:14:06;21.30;;;15.60;;
60919;SDS011;59039;52.108;19.942;2022-08-03T00:16:31;21.40;;;15.10;;
60919;SDS011;59039;52.108;19.942;2022-08-03T00:18:57;21.40;;;16.20;;
60919;SDS011;59039;52.108;19.942;2022-08-03T00:21:23;20.40;;;15.40;;
60919;SDS011;59039;52.108;19.942;2022-08-03T00:23:48;19.70;;;14.50;;
60919;SDS011;59039;52.108;19.942;2022-08-03T00:26:13;21.90;;;13.00;;
60919;SDS011;59039;52.108;19.942;2022-08-03T00:28:38;18.80;;;13.10;;
60919;SDS011;59039;52.108;19.942;2022-08-03T00:31:04;19.90;;;13.40;;
60919;SDS011;59039;52.108;19.942;2022-08-03T00:33:29;17.20;;;13.00;;
60919;SDS011;59039;52.108;19.942;2022-08-03T00:35:54;18.40;;;14.10;;
60919;SDS011;59039;52.108;19.942;2022-08-03T00:38:19;18.40;;;13.50;;
60919;SDS011;59039;52.108;19.942;2022-08-03T00:40:45;19.70;;;14.10;;
60919;SDS011;59039;52.108;19.942;2022-08-03T00:43:11;17.80;;;13.90;;
60919;SDS011;59039;52.108;19.942;2022-08-03T00:45:37;19.40;;;14.00;;
60919;SDS011;59039;52.108;19.942;2022-08-03T00:48:04;18.70;;;14.50;;
60919;SDS011;59039;52.108;19.942;2022-08-03T00:50:32;17.10;;;13.50;;
60919;SDS011;59039;52.108;19.942;2022-08-03T00:52:59;15.30;;;13.40;;
60919;SDS011;59039;52.108;19.942;2022-08-03T00:55:28;15.60;;;13.10;;
60919;SDS011;59039;52.108;19.942;2022-08-03T00:57:54;15.30;;;12.30;;
60919;SDS011;59039;52.108;19.942;2022-08-03T01:00:21;16.50;;;12.40;;
60919;SDS011;59039;52.108;19.942;2022-08-03T01:02:49;19.50;;;13.10;;
60919;SDS011;59039;52.108;19.942;2022-08-03T01:05:15;16.00;;;12.10;;
60919;SDS011;59039;52.108;19.942;2022-08-03T01:15:50;18.70;;;13.90;;
60919;SDS011;59039;52.108;19.942;2022-08-03T01:18:30;18.70;;;13.60;;
60919;SDS011;59039;52.108;19.942;2022-08-03T01:21:03;17.10;;;13.90;;
60919;SDS011;59039;52.108;19.942;2022-08-03T01:23:43;17.80;;;13.20;;
60919;SDS011;59039;52.108;19.942;2022-08-03T01:32:22;16.60;;;13.10;;
60919;SDS011;59039;52.108;19.942;2022-08-03T01:34:59;16.90;;;13.40;;
60919;SDS011;59039;52.108;19.942;2022-08-03T01:37:31;22.90;;;14.60;;
60919;SDS011;59039;52.108;19.942;2022-08-03T01:40:02;18.30;;;13.60;;
60919;SDS011;59039;52.108;19.942;2022-08-03T01:42:30;19.60;;;14.30;;
60919;SDS011;59039;52.108;19.942;2022-08-03T01:44:57;18.50;;;14.10;;
60919;SDS011;59039;52.108;19.942;2022-08-03T01:47:26;17.00;;;14.30;;
60919;SDS011;59039;52.108;19.942;2022-08-03T01:49:54;16.30;;;13.30;;
60919;SDS011;59039;52.108;19.942;2022-08-03T01:52:21;19.70;;;14.50;;
60919;SDS011;59039;52.108;19.942;2022-08-03T01:54:48;17.70;;;13.70;;
60919;SDS011;59039;52.108;19.942;2022-08-03T01:57:16;18.30;;;14.20;;
60919;SDS011;59039;52.108;19.942;2022-08-03T01:59:43;18.70;;;14.00;;
60919;SDS011;59039;52.108;19.942;2022-08-03T02:02:11;20.80;;;14.30;;
60919;SDS011;59039;52.108;19.942;2022-08-03T02:04:38;21.80;;;15.30;;
60919;SDS011;59039;52.108;19.942;2022-08-03T02:07:06;18.80;;;13.90;;
60919;SDS011;59039;52.108;19.942;2022-08-03T02:09:33;17.20;;;13.80;;
60919;SDS011;59039;52.108;19.942;2022-08-03T02:12:02;21.20;;;14.90;;
60919;SDS011;59039;52.108;19.942;2022-08-03T02:14:31;21.60;;;14.90;;
60919;SDS011;59039;52.108;19.942;2022-08-03T02:16:57;19.50;;;13.30;;
60919;SDS011;59039;52.108;19.942;2022-08-03T02:19:24;17.70;;;13.00;;
60919;SDS011;59039;52.108;19.942;2022-08-03T02:21:51;16.20;;;12.70;;
60919;SDS011;59039;52.108;19.942;2022-08-03T02:24:17;17.00;;;13.60;;
60919;SDS011;59039;52.108;19.942;2022-08-03T02:26:43;18.60;;;13.30;;
60919;SDS011;59039;52.108;19.942;2022-08-03T02:29:14;16.20;;;13.70;;
60919;SDS011;59039;52.108;19.942;2022-08-03T02:31:44;18.20;;;13.20;;
60919;SDS011;59039;52.108;19.942;2022-08-03T02:34:13;16.80;;;13.30;;
60919;SDS011;59039;52.108;19.942;2022-08-03T02:36:41;18.10;;;12.30;;
60919;SDS011;59039;52.108;19.942;2022-08-03T02:39:10;17.70;;;13.70;;
60919;SDS011;59039;52.108;19.942;2022-08-03T02:41:44;19.80;;;13.10;;
60919;SDS011;59039;52.108;19.942;2022-08-03T02:44:13;23.20;;;12.90;;
60919;SDS011;59039;52.108;19.942;2022-08-03T02:46:42;16.30;;;13.40;;
60919;SDS011;59039;52.108;19.942;2022-08-03T02:49:09;16.70;;;12.90;;
60919;SDS011;59039;52.108;19.942;2022-08-03T02:51:36;16.40;;;12.90;;
60919;SDS011;59039;52.108;19.942;2022-08-03T02:54:03;15.30;;;12.90;;
60919;SDS011;59039;52.108;19.942;2022-08-03T02:56:30;21.40;;;14.90;;
60919;SDS011;59039;52.108;19.942;2022-08-03T02:58:57;16.90;;;13.30;;
60919;SDS011;59039;52.108;19.942;2022-08-03T03:01:25;16.40;;;13.30;;
60919;SDS011;59039;52.108;19.942;2022-08-03T03:03:52;20.60;;;13.00;;
60919;SDS011;59039;52.108;19.942;2022-08-03T03:06:20;19.30;;;12.30;;
60919;SDS011;59039;52.108;19.942;2022-08-03T03:08:45;14.30;;;11.50;;
60919;SDS011;59039;52.108;19.942;2022-08-03T03:11:12;14.50;;;11.90;;
60919;SDS011;59039;52.108;19.942;2022-08-03T03:13:39;15.50;;;11.00;;
60919;SDS011;59039;52.108;19.942;2022-08-03T03:16:07;14.80;;;11.60;;
60919;SDS011;59039;52.108;19.942;2022-08-03T03:18:33;17.80;;;11.60;;
60919;SDS011;59039;52.108;19.942;2022-08-03T03:21:00;18.10;;;12.70;;
60919;SDS011;59039;52.108;19.942;2022-08-03T03:23:28;14.30;;;11.20;;
60919;SDS011;59039;52.108;19.942;2022-08-03T03:25:54;15.00;;;11.40;;
60919;SDS011;59039;52.108;19.942;2022-08-03T03:28:23;12.00;;;10.20;;
60919;SDS011;59039;52.108;19.942;2022-08-03T03:30:49;15.50;;;11.00;;
60919;SDS011;59039;52.108;19.942;2022-08-03T03:33:15;13.30;;;10.40;;
60919;SDS011;59039;52.108;19.942;2022-08-03T03:35:41;14.70;;;10.30;;
60919;SDS011;59039;52.108;19.942;2022-08-03T03:38:07;17.70;;;11.10;;
60919;SDS011;59039;52.108;19.942;2022-08-03T03:40:36;13.90;;;11.00;;
60919;SDS011;59039;52.108;19.942;2022-08-03T03:43:11;17.60;;;12.50;;
60919;SDS011;59039;52.108;19.942;2022-08-03T03:45:37;16.60;;;12.20;;
60919;SDS011;59039;52.108;19.942;2022-08-03T03:48:05;17.00;;;12.10;;
60919;SDS011;59039;52.108;19.942;2022-08-03T03:50:32;18.90;;;12.70;;
60919;SDS011;59039;52.108;19.942;2022-08-03T03:53:00;18.90;;;12.90;;
60919;SDS011;59039;52.108;19.942;2022-08-03T03:55:26;18.10;;;14.00;;
60919;SDS011;59039;52.108;19.942;2022-08-03T03:57:51;20.60;;;14.30;;
60919;SDS011;59039;52.108;19.942;2022-08-03T04:00:17;24.30;;;13.40;;
60919;SDS011;59039;52.108;19.942;2022-08-03T04:02:43;18.10;;;13.60;;
60919;SDS011;59039;52.108;19.942;2022-08-03T04:05:09;20.40;;;13.00;;
60919;SDS011;59039;52.108;19.942;2022-08-03T04:10:24;20.90;;;14.20;;
60919;SDS011;59039;52.108;19.942;2022-08-03T04:12:55;22.90;;;14.70;;
60919;SDS011;59039;52.108;19.942;2022-08-03T04:15:24;21.50;;;14.70;;
60919;SDS011;59039;52.108;19.942;2022-08-03T04:17:51;23.90;;;15.30;;
60919;SDS011;59039;52.108;19.942;2022-08-03T04:20:19;20.10;;;15.90;;
60919;SDS011;59039;52.108;19.942;2022-08-03T04:22:49;20.90;;;16.40;;
60919;SDS011;59039;52.108;19.942;2022-08-03T04:25:17;26.00;;;18.40;;
60919;SDS011;59039;52.108;19.942;2022-08-03T04:27:44;24.10;;;17.30;;
60919;SDS011;59039;52.108;19.942;2022-08-03T04:30:11;25.00;;;16.70;;
60919;SDS011;59039;52.108;19.942;2022-08-03T04:32:38;27.60;;;17.90;;
60919;SDS011;59039;52.108;19.942;2022-08-03T04:35:04;26.70;;;16.90;;
60919;SDS011;59039;52.108;19.942;2022-08-03T04:40:02;28.20;;;19.10;;
60919;SDS011;59039;52.108;19.942;2022-08-03T04:42:32;29.30;;;20.10;;
60919;SDS011;59039;52.108;19.942;2022-08-03T04:44:58;28.90;;;19.70;;
60919;SDS011;59039;52.108;19.942;2022-08-03T04:47:24;32.30;;;20.70;;
60919;SDS011;59039;52.108;19.942;2022-08-03T04:49:50;31.00;;;20.90;;
60919;SDS011;59039;52.108;19.942;2022-08-03T04:52:16;35.00;;;22.10;;
60919;SDS011;59039;52.108;19.942;2022-08-03T04:54:43;41.40;;;24.90;;
60919;SDS011;59039;52.108;19.942;2022-08-03T04:57:09;37.20;;;23.00;;
60919;SDS011;59039;52.108;19.942;2022-08-03T04:59:35;38.50;;;23.80;;
60919;SDS011;59039;52.108;19.942;2022-08-03T05:02:01;35.70;;;23.10;;
60919;SDS011;59039;52.108;19.942;2022-08-03T05:04:26;38.00;;;22.20;;
60919;SDS011;59039;52.108;19.942;2022-08-03T05:06:52;32.00;;;23.00;;
60919;SDS011;59039;52.108;19.942;2022-08-03T05:09:17;30.00;;;20.20;;
60919;SDS011;59039;52.108;19.942;2022-08-03T05:11:42;35.70;;;22.00;;
60919;SDS011;59039;52.108;19.942;2022-08-03T05:14:07;33.70;;;21.30;;
60919;SDS011;59039;52.108;19.942;2022-08-03T05:16:33;32.70;;;20.50;;
60919;SDS011;59039;52.108;19.942;2022-08-03T05:19:01;30.50;;;20.10;;
60919;SDS011;59039;52.108;19.942;2022-08-03T05:21:27;23.00;;;17.70;;
60919;SDS011;59039;52.108;19.942;2022-08-03T05:23:52;28.00;;;18.00;;
60919;SDS011;59039;52.108;19.942;2022-08-03T05:26:17;25.70;;;18.90;;
60919;SDS011;59039;52.108;19.942;2022-08-03T05:28:42;24.10;;;17.10;;
60919;SDS011;59039;52.108;19.942;2022-08-03T05:31:08;21.10;;;15.30;;
60919;SDS011;59039;52.108;19.942;2022-08-03T05:33:33;26.20;;;16.40;;
60919;SDS011;59039;52.108;19.942;2022-08-03T05:35:58;19.10;;;14.10;;
60919;SDS011;59039;52.108;19.942;2022-08-03T05:38:23;23.10;;;15.30;;
60919;SDS011;59039;52.108;19.942;2022-08-03T05:40:49;21.50;;;15.10;;
60919;SDS011;59039;52.108;19.942;2022-08-03T05:43:14;20.40;;;15.60;;
60919;SDS011;59039;52.108;19.942;2022-08-03T05:45:39;21.90;;;13.80;;
60919;SDS011;59039;52.108;19.942;2022-08-03T05:48:05;21.30;;;14.90;;
60919;SDS011;59039;52.108;19.942;2022-08-03T05:50:31;20.60;;;14.10;;
60919;SDS011;59039;52.108;19.942;2022-08-03T05:52:56;24.60;;;14.10;;
60919;SDS011;59039;52.108;19.942;2022-08-03T05:55:21;19.50;;;14.00;;
60919;SDS011;59039;52.108;19.942;2022-08-03T05:57:47;21.40;;;13.00;;
60919;SDS011;59039;52.108;19.942;2022-08-03T06:00:13;17.40;;;12.50;;
60919;SDS011;59039;52.108;19.942;2022-08-03T06:02:38;16.50;;;12.00;;
60919;SDS011;59039;52.108;19.942;2022-08-03T06:05:04;20.00;;;12.40;;
60919;SDS011;59039;52.108;19.942;2022-08-03T06:07:30;17.50;;;12.20;;
60919;SDS011;59039;52.108;19.942;2022-08-03T06:09:56;20.60;;;11.60;;
60919;SDS011;59039;52.108;19.942;2022-08-03T06:12:21;14.70;;;11.10;;
60919;SDS011;59039;52.108;19.942;2022-08-03T06:14:47;16.30;;;10.40;;
60919;SDS011;59039;52.108;19.942;2022-08-03T06:17:12;17.00;;;11.90;;
60919;SDS011;59039;52.108;19.942;2022-08-03T06:19:46;16.70;;;12.50;;
60919;SDS011;59039;52.108;19.942;2022-08-03T06:22:11;15.70;;;11.90;;
60919;SDS011;59039;52.108;19.942;2022-08-03T06:24:37;20.50;;;11.80;;
60919;SDS011;59039;52.108;19.942;2022-08-03T06:27:02;18.40;;;12.00;;
60919;SDS011;59039;52.108;19.942;2022-08-03T06:29:27;16.70;;;11.50;;
60919;SDS011;59039;52.108;19.942;2022-08-03T06:31:53;20.70;;;12.50;;
60919;SDS011;59039;52.108;19.942;2022-08-03T06:34:18;17.80;;;12.30;;
60919;SDS011;59039;52.108;19.942;2022-08-03T06:36:43;20.30;;;12.60;;
60919;SDS011;59039;52.108;19.942;2022-08-03T06:39:09;17.80;;;12.10;;
60919;SDS011;59039;52.108;19.942;2022-08-03T06:41:34;14.80;;;10.50;;
60919;SDS011;59039;52.108;19.942;2022-08-03T06:43:59;15.40;;;11.20;;
60919;SDS011;59039;52.108;19.942;2022-08-03T06:46:25;15.20;;;9.90;;
60919;SDS011;59039;52.108;19.942;2022-08-03T06:48:50;17.60;;;10.20;;
60919;SDS011;59039;52.108;19.942;2022-08-03T06:51:15;13.90;;;10.30;;
60919;SDS011;59039;52.108;19.942;2022-08-03T06:53:41;12.50;;;10.30;;
60919;SDS011;59039;52.108;19.942;2022-08-03T06:56:06;13.20;;;10.10;;
60919;SDS011;59039;52.108;19.942;2022-08-03T06:58:33;13.60;;;9.60;;
60919;SDS011;59039;52.108;19.942;2022-08-03T07:00:59;17.10;;;9.90;;
60919;SDS011;59039;52.108;19.942;2022-08-03T07:03:24;14.50;;;8.90;;
60919;SDS011;59039;52.108;19.942;2022-08-03T07:05:49;14.10;;;10.10;;
60919;SDS011;59039;52.108;19.942;2022-08-03T07:08:15;14.20;;;9.40;;
60919;SDS011;59039;52.108;19.942;2022-08-03T07:10:40;11.60;;;9.20;;
60919;SDS011;59039;52.108;19.942;2022-08-03T07:13:06;15.10;;;10.00;;
60919;SDS011;59039;52.108;19.942;2022-08-03T07:15:31;15.60;;;9.30;;
60919;SDS011;59039;52.108;19.942;2022-08-03T07:17:57;14.70;;;9.40;;
60919;SDS011;59039;52.108;19.942;2022-08-03T07:20:22;14.00;;;9.80;;
60919;SDS011;59039;52.108;19.942;2022-08-03T07:22:48;15.10;;;9.90;;
60919;SDS011;59039;52.108;19.942;2022-08-03T07:25:13;15.20;;;9.50;;
60919;SDS011;59039;52.108;19.942;2022-08-03T07:27:45;14.50;;;9.50;;
60919;SDS011;59039;52.108;19.942;2022-08-03T07:30:12;13.40;;;9.10;;
60919;SDS011;59039;52.108;19.942;2022-08-03T07:32:39;12.20;;;9.00;;
60919;SDS011;59039;52.108;19.942;2022-08-03T07:35:05;13.40;;;9.40;;
60919;SDS011;59039;52.108;19.942;2022-08-03T07:37:31;14.00;;;8.80;;
60919;SDS011;59039;52.108;19.942;2022-08-03T07:39:58;14.60;;;8.40;;
60919;SDS011;59039;52.108;19.942;2022-08-03T07:42:24;9.90;;;8.10;;
60919;SDS011;59039;52.108;19.942;2022-08-03T07:44:50;10.60;;;7.50;;
60919;SDS011;59039;52.108;19.942;2022-08-03T07:47:19;12.80;;;8.00;;
60919;SDS011;59039;52.108;19.942;2022-08-03T07:52:13;12.80;;;7.80;;
60919;SDS011;59039;52.108;19.942;2022-08-03T07:54:39;44.60;;;9.80;;
60919;SDS011;59039;52.108;19.942;2022-08-03T07:57:04;9.60;;;7.00;;
60919;SDS011;59039;52.108;19.942;2022-08-03T07:59:30;28.20;;;8.80;;
60919;SDS011;59039;52.108;19.942;2022-08-03T08:01:55;10.80;;;8.20;;
60919;SDS011;59039;52.108;19.942;2022-08-03T08:04:20;12.60;;;7.90;;
60919;SDS011;59039;52.108;19.942;2022-08-03T08:06:46;9.70;;;7.50;;
60919;SDS011;59039;52.108;19.942;2022-08-03T08:09:11;13.10;;;8.80;;
60919;SDS011;59039;52.108;19.942;2022-08-03T08:11:36;16.30;;;8.90;;
60919;SDS011;59039;52.108;19.942;2022-08-03T08:14:05;17.00;;;8.60;;
60919;SDS011;59039;52.108;19.942;2022-08-03T08:16:30;12.10;;;7.80;;
60919;SDS011;59039;52.108;19.942;2022-08-03T08:18:55;12.30;;;7.10;;
60919;SDS011;59039;52.108;19.942;2022-08-03T08:21:20;9.60;;;6.00;;
60919;SDS011;59039;52.108;19.942;2022-08-03T08:23:46;13.20;;;6.50;;
60919;SDS011;59039;52.108;19.942;2022-08-03T08:26:11;12.10;;;6.40;;
60919;SDS011;59039;52.108;19.942;2022-08-03T08:28:36;14.00;;;6.20;;
60919;SDS011;59039;52.108;19.942;2022-08-03T08:31:02;9.30;;;5.90;;
60919;SDS011;59039;52.108;19.942;2022-08-03T08:33:27;8.20;;;5.70;;
60919;SDS011;59039;52.108;19.942;2022-08-03T08:35:53;7.70;;;5.30;;
60919;SDS011;59039;52.108;19.942;2022-08-03T08:38:21;9.20;;;5.30;;
60919;SDS011;59039;52.108;19.942;2022-08-03T08:40:47;7.60;;;5.40;;
60919;SDS011;59039;52.108;19.942;2022-08-03T08:43:14;7.60;;;5.20;;
60919;SDS011;59039;52.108;19.942;2022-08-03T08:45:40;6.90;;;4.80;;
60919;SDS011;59039;52.108;19.942;2022-08-03T08:48:05;5.90;;;4.50;;
60919;SDS011;59039;52.108;19.942;2022-08-03T08:50:33;8.80;;;4.50;;
60919;SDS011;59039;52.108;19.942;2022-08-03T08:53:01;4.50;;;3.90;;
60919;SDS011;59039;52.108;19.942;2022-08-03T08:55:27;4.80;;;3.60;;
60919;SDS011;59039;52.108;19.942;2022-08-03T08:57:56;5.70;;;4.30;;
60919;SDS011;59039;52.108;19.942;2022-08-03T09:00:25;5.40;;;3.80;;
60919;SDS011;59039;52.108;19.942;2022-08-03T09:02:51;5.20;;;3.90;;
60919;SDS011;59039;52.108;19.942;2022-08-03T09:05:17;9.20;;;6.60;;
60919;SDS011;59039;52.108;19.942;2022-08-03T09:07:44;7.20;;;5.20;;
60919;SDS011;59039;52.108;19.942;2022-08-03T09:10:11;10.50;;;8.30;;
60919;SDS011;59039;52.108;19.942;2022-08-03T09:12:43;6.70;;;4.60;;
60919;SDS011;59039;52.108;19.942;2022-08-03T09:15:24;5.70;;;3.30;;
60919;SDS011;59039;52.108;19.942;2022-08-03T09:17:52;4.50;;;3.20;;
60919;SDS011;59039;52.108;19.942;2022-08-03T09:20:21;4.30;;;3.40;;
60919;SDS011;59039;52.108;19.942;2022-08-03T09:25:25;4.90;;;4.00;;
60919;SDS011;59039;52.108;19.942;2022-08-03T09:27:54;4.90;;;3.20;;
60919;SDS011;59039;52.108;19.942;2022-08-03T09:30:41;4.30;;;3.50;;
60919;SDS011;59039;52.108;19.942;2022-08-03T09:33:17;5.50;;;3.30;;
60919;SDS011;59039;52.108;19.942;2022-08-03T09:35:46;5.70;;;3.10;;
60919;SDS011;59039;52.108;19.942;2022-08-03T09:38:13;5.80;;;3.50;;
60919;SDS011;59039;52.108;19.942;2022-08-03T09:40:43;5.00;;;3.80;;
60919;SDS011;59039;52.108;19.942;2022-08-03T09:43:10;5.20;;;3.30;;
60919;SDS011;59039;52.108;19.942;2022-08-03T09:45:39;5.70;;;3.80;;
60919;SDS011;59039;52.108;19.942;2022-08-03T09:50:51;5.50;;;4.20;;
60919;SDS011;59039;52.108;19.942;2022-08-03T09:53:19;7.80;;;4.20;;
60919;SDS011;59039;52.108;19.942;2022-08-03T09:55:52;6.80;;;4.10;;
60919;SDS011;59039;52.108;19.942;2022-08-03T09:58:21;6.30;;;4.80;;
60919;SDS011;59039;52.108;19.942;2022-08-03T10:00:52;5.10;;;4.50;;
60919;SDS011;59039;52.108;19.942;2022-08-03T10:03:23;7.60;;;4.80;;
60919;SDS011;59039;52.108;19.942;2022-08-03T10:05:50;6.50;;;5.30;;
60919;SDS011;59039;52.108;19.942;2022-08-03T10:08:16;7.30;;;5.30;;
60919;SDS011;59039;52.108;19.942;2022-08-03T10:10:44;8.90;;;5.50;;
60919;SDS011;59039;52.108;19.942;2022-08-03T10:13:12;6.50;;;5.20;;
60919;SDS011;59039;52.108;19.942;2022-08-03T10:15:39;5.60;;;4.90;;
60919;SDS011;59039;52.108;19.942;2022-08-03T10:18:05;7.30;;;5.60;;
60919;SDS011;59039;52.108;19.942;2022-08-03T10:20:32;7.70;;;4.70;;
60919;SDS011;59039;52.108;19.942;2022-08-03T10:23:01;5.80;;;5.00;;
60919;SDS011;59039;52.108;19.942;2022-08-03T10:25:28;6.10;;;5.10;;
60919;SDS011;59039;52.108;19.942;2022-08-03T10:27:55;5.50;;;4.90;;
60919;SDS011;59039;52.108;19.942;2022-08-03T10:30:22;6.20;;;4.90;;
60919;SDS011;59039;52.108;19.942;2022-08-03T10:32:54;8.10;;;5.20;;
60919;SDS011;59039;52.108;19.942;2022-08-03T10:35:22;15.40;;;11.90;;
60919;SDS011;59039;52.108;19.942;2022-08-03T10:38:08;16.40;;;10.60;;
60919;SDS011;59039;52.108;19.942;2022-08-03T10:40:40;10.30;;;6.40;;
60919;SDS011;59039;52.108;19.942;2022-08-03T10:43:06;14.70;;;8.20;;
60919;SDS011;59039;52.108;19.942;2022-08-03T10:45:36;17.10;;;7.70;;
60919;SDS011;59039;52.108;19.942;2022-08-03T10:48:05;7.00;;;4.60;;
60919;SDS011;59039;52.108;19.942;2022-08-03T10:50:32;7.90;;;5.30;;
60919;SDS011;59039;52.108;19.942;2022-08-03T10:52:59;11.00;;;7.10;;
60919;SDS011;59039;52.108;19.942;2022-08-03T10:55:36;15.00;;;8.60;;
60919;SDS011;59039;52.108;19.942;2022-08-03T10:58:04;6.70;;;6.00;;
60919;SDS011;59039;52.108;19.942;2022-08-03T11:00:29;6.30;;;5.60;;
60919;SDS011;59039;52.108;19.942;2022-08-03T11:03:13;6.00;;;5.10;;
60919;SDS011;59039;52.108;19.942;2022-08-03T11:05:42;8.90;;;5.90;;
60919;SDS011;59039;52.108;19.942;2022-08-03T11:10:45;9.30;;;5.30;;
60919;SDS011;59039;52.108;19.942;2022-08-03T11:13:12;6.60;;;5.80;;
60919;SDS011;59039;52.108;19.942;2022-08-03T11:15:40;6.60;;;5.50;;
60919;SDS011;59039;52.108;19.942;2022-08-03T11:18:09;6.20;;;5.40;;
60919;SDS011;59039;52.108;19.942;2022-08-03T11:20:52;7.20;;;5.50;;
60919;SDS011;59039;52.108;19.942;2022-08-03T11:23:38;9.70;;;6.00;;
60919;SDS011;59039;52.108;19.942;2022-08-03T11:28:38;7.60;;;6.30;;
60919;SDS011;59039;52.108;19.942;2022-08-03T11:39:39;7.30;;;6.00;;
60919;SDS011;59039;52.108;19.942;2022-08-03T11:44:45;6.70;;;6.00;;
60919;SDS011;59039;52.108;19.942;2022-08-03T11:47:12;8.00;;;6.30;;
60919;SDS011;59039;52.108;19.942;2022-08-03T11:49:37;7.30;;;6.60;;
60919;SDS011;59039;52.108;19.942;2022-08-03T11:52:04;10.50;;;6.30;;
60919;SDS011;59039;52.108;19.942;2022-08-03T11:54:29;7.30;;;6.60;;
60919;SDS011;59039;52.108;19.942;2022-08-03T11:56:55;66.30;;;34.30;;
60919;SDS011;59039;52.108;19.942;2022-08-03T11:59:30;17.60;;;11.50;;
60919;SDS011;59039;52.108;19.942;2022-08-03T12:02:04;10.10;;;6.60;;
60919;SDS011;59039;52.108;19.942;2022-08-03T12:04:31;7.20;;;6.30;;
60919;SDS011;59039;52.108;19.942;2022-08-03T12:06:56;8.30;;;7.00;;
60919;SDS011;59039;52.108;19.942;2022-08-03T12:09:25;6.90;;;6.20;;
60919;SDS011;59039;52.108;19.942;2022-08-03T12:11:50;8.80;;;7.10;;
60919;SDS011;59039;52.108;19.942;2022-08-03T12:14:16;7.20;;;6.30;;
60919;SDS011;59039;52.108;19.942;2022-08-03T12:16:45;9.80;;;6.80;;
60919;SDS011;59039;52.108;19.942;2022-08-03T12:19:12;7.10;;;6.40;;
60919;SDS011;59039;52.108;19.942;2022-08-03T12:21:47;8.30;;;6.60;;
60919;SDS011;59039;52.108;19.942;2022-08-03T12:24:13;7.00;;;6.30;;
60919;SDS011;59039;52.108;19.942;2022-08-03T12:26:49;8.10;;;6.70;;
60919;SDS011;59039;52.108;19.942;2022-08-03T12:29:15;8.70;;;6.30;;
60919;SDS011;59039;52.108;19.942;2022-08-03T12:31:44;9.80;;;6.80;;
60919;SDS011;59039;52.108;19.942;2022-08-03T12:34:09;11.50;;;6.70;;
60919;SDS011;59039;52.108;19.942;2022-08-03T12:36:35;9.30;;;7.10;;
60919;SDS011;59039;52.108;19.942;2022-08-03T12:39:04;10.40;;;7.00;;
60919;SDS011;59039;52.108;19.942;2022-08-03T12:41:35;8.30;;;7.40;;
60919;SDS011;59039;52.108;19.942;2022-08-03T12:44:03;8.30;;;6.70;;
60919;SDS011;59039;52.108;19.942;2022-08-03T12:46:33;7.40;;;6.70;;
60919;SDS011;59039;52.108;19.942;2022-08-03T12:49:04;7.90;;;7.10;;
60919;SDS011;59039;52.108;19.942;2022-08-03T12:51:34;7.50;;;6.70;;
60919;SDS011;59039;52.108;19.942;2022-08-03T12:54:20;7.70;;;6.60;;
60919;SDS011;59039;52.108;19.942;2022-08-03T12:59:27;7.60;;;6.50;;
60919;SDS011;59039;52.108;19.942;2022-08-03T13:01:54;8.40;;;6.50;;
60919;SDS011;59039;52.108;19.942;2022-08-03T13:06:57;9.20;;;6.90;;
60919;SDS011;59039;52.108;19.942;2022-08-03T13:09:27;8.40;;;6.60;;
60919;SDS011;59039;52.108;19.942;2022-08-03T13:12:12;8.10;;;6.80;;
60919;SDS011;59039;52.108;19.942;2022-08-03T13:14:39;9.20;;;7.40;;
60919;SDS011;59039;52.108;19.942;2022-08-03T13:17:06;7.90;;;6.50;;
60919;SDS011;59039;52.108;19.942;2022-08-03T13:19:32;9.90;;;7.10;;
60919;SDS011;59039;52.108;19.942;2022-08-03T13:21:58;7.60;;;6.80;;
60919;SDS011;59039;52.108;19.942;2022-08-03T13:24:23;8.70;;;7.00;;
60919;SDS011;59039;52.108;19.942;2022-08-03T13:26:49;8.40;;;7.30;;
60919;SDS011;59039;52.108;19.942;2022-08-03T13:29:14;8.40;;;7.20;;
60919;SDS011;59039;52.108;19.942;2022-08-03T13:31:40;8.60;;;7.80;;
60919;SDS011;59039;52.108;19.942;2022-08-03T13:34:05;9.10;;;7.40;;
60919;SDS011;59039;52.108;19.942;2022-08-03T13:36:30;7.70;;;6.90;;
60919;SDS011;59039;52.108;19.942;2022-08-03T13:38:56;9.10;;;6.80;;
60919;SDS011;59039;52.108;19.942;2022-08-03T13:41:21;7.90;;;7.10;;
60919;SDS011;59039;52.108;19.942;2022-08-03T13:43:46;7.60;;;6.60;;
60919;SDS011;59039;52.108;19.942;2022-08-03T13:46:11;9.40;;;7.20;;
60919;SDS011;59039;52.108;19.942;2022-08-03T13:48:37;7.90;;;7.10;;
60919;SDS011;59039;52.108;19.942;2022-08-03T13:51:02;9.60;;;7.10;;
60919;SDS011;59039;52.108;19.942;2022-08-03T13:53:27;12.10;;;6.90;;
60919;SDS011;59039;52.108;19.942;2022-08-03T13:55:52;8.70;;;7.10;;
60919;SDS011;59039;52.108;19.942;2022-08-03T13:58:18;8.20;;;7.00;;
60919;SDS011;59039;52.108;19.942;2022-08-03T14:00:43;11.70;;;6.60;;
60919;SDS011;59039;52.108;19.942;2022-08-03T14:03:08;10.50;;;6.90;;
60919;SDS011;59039;52.108;19.942;2022-08-03T14:05:42;7.30;;;6.60;;
60919;SDS011;59039;52.108;19.942;2022-08-03T14:08:08;8.00;;;7.20;;
60919;SDS011;59039;52.108;19.942;2022-08-03T14:10:36;7.50;;;6.80;;
60919;SDS011;59039;52.108;19.942;2022-08-03T14:13:05;11.50;;;7.20;;
60919;SDS011;59039;52.108;19.942;2022-08-03T14:15:30;7.40;;;6.70;;
60919;SDS011;59039;52.108;19.942;2022-08-03T14:17:56;9.10;;;6.50;;
60919;SDS011;59039;52.108;19.942;2022-08-03T14:20:21;8.50;;;6.50;;
60919;SDS011;59039;52.108;19.942;2022-08-03T14:22:46;9.20;;;7.20;;
60919;SDS011;59039;52.108;19.942;2022-08-03T14:25:12;10.40;;;7.00;;
60919;SDS011;59039;52.108;19.942;2022-08-03T14:27:37;9.50;;;7.00;;
60919;SDS011;59039;52.108;19.942;2022-08-03T14:30:02;9.10;;;6.60;;
60919;SDS011;59039;52.108;19.942;2022-08-03T14:32:28;8.00;;;6.80;;
60919;SDS011;59039;52.108;19.942;2022-08-03T14:34:53;9.30;;;7.10;;
60919;SDS011;59039;52.108;19.942;2022-08-03T14:37:18;7.50;;;6.80;;
60919;SDS011;59039;52.108;19.942;2022-08-03T14:39:44;9.90;;;7.20;;
60919;SDS011;59039;52.108;19.942;2022-08-03T14:42:09;11.10;;;7.20;;
60919;SDS011;59039;52.108;19.942;2022-08-03T14:44:34;8.20;;;7.00;;
60919;SDS011;59039;52.108;19.942;2022-08-03T14:47:00;7.70;;;6.80;;
60919;SDS011;59039;52.108;19.942;2022-08-03T14:49:25;8.20;;;6.70;;
60919;SDS011;59039;52.108;19.942;2022-08-03T14:51:50;8.30;;;6.80;;
60919;SDS011;59039;52.108;19.942;2022-08-03T14:54:16;7.60;;;6.80;;
60919;SDS011;59039;52.108;19.942;2022-08-03T14:56:41;8.10;;;7.30;;
60919;SDS011;59039;52.108;19.942;2022-08-03T14:59:06;7.50;;;6.70;;
60919;SDS011;59039;52.108;19.942;2022-08-03T15:01:31;9.40;;;7.10;;
60919;SDS011;59039;52.108;19.942;2022-08-03T15:03:56;10.00;;;7.60;;
60919;SDS011;59039;52.108;19.942;2022-08-03T15:06:22;8.50;;;7.20;;
60919;SDS011;59039;52.108;19.942;2022-08-03T15:08:48;9.50;;;7.00;;
60919;SDS011;59039;52.108;19.942;2022-08-03T15:11:13;8.10;;;7.30;;